Time;durP1;ratioP1;P1;durP2;ratioP2;P2;SDS_P1;SDS_P2;PMS_P1;PMS_P2;Temp;Humidity;BMP_temperature;BMP_pressure;BME280_temperature;BME280_humidity;BME280_pressure;Samples;Min_cycle;Max_cycle;Signal;HPM_P1;HPM_P2
2022/01/11 00:03:30;;;;;;;0.20;0.00;;;10.00;99.90;;;;;;25461814;23;20281;-67
2022/01/11 00:13:37;;;;;;;0.20;0.10;;;9.70;99.90;;;;;;25463073;23;20274;-68
2022/01/11 00:34:06;;;;;;;0.20;0.00;;;9.00;99.90;;;;;;25463870;23;20278;-67
2022/01/11 00:44:11;;;;;;;0.20;0.10;;;8.80;99.90;;;;;;25464190;23;20181;-68
2022/01/11 00:54:16;;;;;;;0.20;0.10;;;8.30;99.90;;;;;;25469737;23;20273;-68
2022/01/11 01:04:20;;;;;;;0.20;0.00;;;8.00;99.90;;;;;;25443852;23;20649;-70
2022/01/11 01:14:25;;;;;;;0.20;0.00;;;8.10;99.90;;;;;;25445399;23;20277;-68
2022/01/11 01:24:29;;;;;;;0.20;0.00;;;7.50;99.90;;;;;;25470026;23;20198;-69
2022/01/11 01:34:34;;;;;;;0.20;0.00;;;7.20;99.90;;;;;;25469783;23;20240;-66
2022/01/11 01:44:39;;;;;;;0.20;0.00;;;7.10;99.90;;;;;;25469369;23;20514;-66
2022/01/11 01:54:45;;;;;;;0.20;0.00;;;6.90;99.90;;;;;;25469230;23;20201;-65
2022/01/11 02:04:50;;;;;;;0.20;0.00;;;7.00;99.90;;;;;;25466364;23;20278;-65
2022/01/11 02:14:55;;;;;;;0.20;0.10;;;6.90;99.90;;;;;;25466747;23;20277;-73
2022/01/11 02:25:00;;;;;;;0.20;0.07;;;7.40;99.90;;;;;;25468442;23;20174;-73
2022/01/11 02:35:05;;;;;;;0.20;0.03;;;7.10;99.90;;;;;;25466132;23;20198;-69
2022/01/11 02:45:15;;;;;;;0.20;0.17;;;7.20;99.90;;;;;;25466990;23;20175;-68
2022/01/11 02:55:19;;;;;;;0.20;0.00;;;7.40;99.90;;;;;;25466370;23;20585;-69
2022/01/11 03:05:24;;;;;;;0.20;0.00;;;7.10;99.90;;;;;;25442499;23;20241;-66
2022/01/11 03:15:28;;;;;;;0.20;0.00;;;7.40;99.90;;;;;;25464312;23;20542;-65
2022/01/11 03:25:35;;;;;;;0.20;0.10;;;7.70;99.90;;;;;;25464137;23;20277;-65
2022/01/11 03:35:40;;;;;;;0.20;0.10;;;7.50;99.90;;;;;;25462116;23;20285;-67
2022/01/11 03:45:45;;;;;;;0.20;0.07;;;7.20;99.90;;;;;;25466030;23;20254;-64
2022/01/11 03:56:21;;;;;;;0.20;0.00;;;7.20;99.90;;;;;;25465011;23;20644;-65
2022/01/11 04:06:27;;;;;;;0.20;0.00;;;7.30;99.90;;;;;;25461346;23;20226;-68
2022/01/11 04:16:31;;;;;;;0.20;0.07;;;7.40;99.90;;;;;;25464220;23;20637;-68
2022/01/11 04:26:36;;;;;;;0.53;0.43;;;7.60;99.90;;;;;;25462253;23;20225;-65
2022/01/11 04:36:40;;;;;;;0.20;0.00;;;7.60;99.90;;;;;;25461577;23;20202;-65
2022/01/11 04:46:45;;;;;;;0.20;0.00;;;7.60;99.90;;;;;;25458580;23;20163;-68
2022/01/11 04:56:49;;;;;;;5.20;2.43;;;7.50;99.90;;;;;;25461357;23;20290;-68
2022/01/11 05:06:55;;;;;;;0.20;0.00;;;7.50;99.90;;;;;;25460942;23;20222;-67
2022/01/11 05:16:59;;;;;;;0.20;0.00;;;7.30;99.90;;;;;;25460697;23;20178;-67
2022/01/11 05:27:05;;;;;;;0.20;0.10;;;7.20;99.90;;;;;;25463028;23;20191;-69
2022/01/11 05:37:09;;;;;;;0.20;0.10;;;7.00;99.90;;;;;;25466349;23;20185;-76
2022/01/11 05:47:14;;;;;;;0.20;0.10;;;7.40;99.90;;;;;;25470176;23;20645;-74
2022/01/11 05:57:19;;;;;;;0.20;0.00;;;7.40;99.90;;;;;;25468277;23;20270;-68
2022/01/11 06:07:24;;;;;;;0.20;0.10;;;7.30;99.90;;;;;;25467456;23;20170;-68
2022/01/11 06:17:28;;;;;;;0.20;0.10;;;7.20;99.90;;;;;;25466520;23;20179;-68
2022/01/11 06:27:34;;;;;;;0.20;0.10;;;6.80;99.90;;;;;;25439808;23;20218;-69
2022/01/11 06:37:38;;;;;;;0.20;0.00;;;7.10;99.90;;;;;;25464563;23;20171;-68
2022/01/11 06:47:43;;;;;;;0.20;0.10;;;7.50;99.90;;;;;;25464708;23;20248;-68
2022/01/11 06:57:47;;;;;;;0.20;0.07;;;7.70;99.90;;;;;;25463391;23;20199;-69
2022/01/11 07:07:52;;;;;;;0.20;0.10;;;7.60;99.90;;;;;;25429410;23;20278;-66
2022/01/11 07:17:56;;;;;;;0.20;0.10;;;7.20;99.90;;;;;;25459422;23;20178;-65
2022/01/11 07:28:02;;;;;;;0.20;0.00;;;7.10;99.90;;;;;;25462945;23;20258;-65
2022/01/11 07:38:06;;;;;;;0.20;0.10;;;7.30;99.90;;;;;;25461756;23;20634;-66
2022/01/11 07:48:11;;;;;;;0.20;0.10;;;7.20;99.90;;;;;;25434734;23;20607;-66
2022/01/11 07:58:15;;;;;;;0.20;0.10;;;7.30;99.90;;;;;;25458368;23;20310;-62
2022/01/11 08:08:21;;;;;;;0.20;0.10;;;7.50;99.90;;;;;;25458734;23;20546;-68
2022/01/11 08:18:24;;;;;;;0.20;0.10;;;7.70;99.90;;;;;;25456652;23;20700;-69
2022/01/11 08:28:30;;;;;;;0.20;0.07;;;8.00;99.90;;;;;;25457879;23;20252;-68
2022/01/11 08:38:35;;;;;;;0.20;0.00;;;8.50;99.90;;;;;;25456324;23;20209;-68
2022/01/11 08:48:40;;;;;;;0.20;0.10;;;9.00;99.90;;;;;;25433047;23;20206;-70
2022/01/11 08:58:44;;;;;;;0.20;0.10;;;9.20;99.90;;;;;;25457838;23;20285;-66
2022/01/11 09:08:49;;;;;;;0.20;0.10;;;9.30;99.90;;;;;;25434413;23;20198;-67
2022/01/11 09:18:53;;;;;;;0.20;0.10;;;9.30;99.90;;;;;;25438270;23;20603;-66
2022/01/11 09:28:59;;;;;;;0.20;0.10;;;9.60;99.90;;;;;;25463397;23;20222;-66
2022/01/11 09:39:03;;;;;;;0.20;0.10;;;10.10;99.90;;;;;;25468007;23;20660;-75
2022/01/11 09:49:09;;;;;;;0.20;0.10;;;10.80;99.90;;;;;;25440978;23;20235;-76
2022/01/11 09:59:15;;;;;;;0.20;0.10;;;11.00;99.90;;;;;;25461384;23;20286;-67
2022/01/11 10:09:23;;;;;;;0.20;0.10;;;12.00;99.90;;;;;;25449554;23;20265;-68
2022/01/11 10:19:27;;;;;;;0.20;0.10;;;12.50;99.90;;;;;;25418759;23;20538;-67
2022/01/11 10:29:37;;;;;;;0.20;0.00;;;12.80;99.90;;;;;;25449314;23;20209;-68
2022/01/11 10:39:43;;;;;;;0.20;0.10;;;12.90;99.90;;;;;;25422723;23;20185;-68
2022/01/11 10:49:57;;;;;;;0.20;0.00;;;13.90;99.90;;;;;;25422409;23;20279;-66
2022/01/11 11:00:23;;;;;;;0.20;0.00;;;14.40;99.90;;;;;;25420933;23;20206;-69
2022/01/11 11:10:48;;;;;;;0.20;0.00;;;15.00;99.90;;;;;;25448928;23;20668;-73
2022/01/11 11:20:53;;;;;;;0.20;0.10;;;15.80;99.90;;;;;;25447395;23;20661;-74
2022/01/11 11:30:59;;;;;;;0.20;0.10;;;16.10;99.90;;;;;;25445843;23;20277;-74
2022/01/11 11:41:04;;;;;;;0.20;0.10;;;16.30;99.90;;;;;;25445891;23;20181;-68
2022/01/11 11:51:12;;;;;;;0.20;0.00;;;16.30;99.90;;;;;;25417015;23;20284;-68
2022/01/11 12:01:50;;;;;;;0.20;0.13;;;16.40;99.90;;;;;;25445272;23;20205;-67
2022/01/11 12:11:57;;;;;;;1.23;1.03;;;17.00;99.90;;;;;;25369768;23;20514;-69
2022/01/11 12:22:24;;;;;;;0.20;0.10;;;17.40;99.90;;;;;;25418668;23;20178;-69
2022/01/11 12:32:32;;;;;;;0.20;0.03;;;17.80;99.90;;;;;;25445604;23;20914;-68
2022/01/11 12:42:38;;;;;;;0.20;0.00;;;18.40;99.90;;;;;;25444673;23;20170;-70
2022/01/11 12:52:43;;;;;;;0.20;0.10;;;18.70;99.90;;;;;;25453269;23;20191;-71
2022/01/11 13:02:47;;;;;;;0.20;0.00;;;19.10;99.90;;;;;;25450576;23;20209;-70
2022/01/11 13:12:56;;;;;;;0.20;0.10;;;19.80;99.90;;;;;;25445634;23;20490;-71
2022/01/11 13:23:16;;;;;;;0.30;0.30;;;20.00;99.90;;;;;;25416851;23;20648;-70
2022/01/11 13:33:28;;;;;;;0.20;0.10;;;20.00;99.90;;;;;;25406868;23;20209;-66
2022/01/11 13:43:36;;;;;;;1.17;0.73;;;19.60;99.90;;;;;;25414453;23;20178;-68
2022/01/11 13:53:42;;;;;;;0.73;0.57;;;19.10;99.90;;;;;;25447286;23;20206;-72
2022/01/11 14:03:49;;;;;;;0.20;0.00;;;19.70;99.90;;;;;;25449271;23;20228;-70
2022/01/11 14:13:58;;;;;;;0.20;0.00;;;19.90;99.90;;;;;;25448217;23;20222;-68
2022/01/11 14:24:23;;;;;;;0.20;0.00;;;20.60;99.90;;;;;;25418176;23;20175;-69
2022/01/11 14:34:28;;;;;;;0.20;0.00;;;21.00;99.90;;;;;;25416640;23;20203;-71
2022/01/11 14:44:32;;;;;;;0.20;0.00;;;21.20;99.90;;;;;;25445391;23;20175;-68
2022/01/11 14:54:39;;;;;;;0.20;0.10;;;20.80;99.90;;;;;;25448237;23;20277;-67
2022/01/11 15:04:45;;;;;;;0.20;0.03;;;19.20;99.90;;;;;;25420913;23;20829;-71
2022/01/11 15:14:54;;;;;;;0.20;0.00;;;19.10;99.90;;;;;;25449008;23;20283;-70
2022/01/11 15:24:58;;;;;;;0.20;0.10;;;19.10;99.90;;;;;;25420830;23;20838;-70
2022/01/11 15:35:05;;;;;;;0.20;0.00;;;19.10;99.90;;;;;;25447527;23;20201;-69
2022/01/11 15:45:09;;;;;;;0.20;0.03;;;19.70;99.90;;;;;;25447527;23;20175;-70
2022/01/11 15:55:15;;;;;;;0.20;0.10;;;19.30;99.90;;;;;;25446742;23;20249;-70
2022/01/11 16:05:19;;;;;;;0.20;0.00;;;17.90;99.90;;;;;;25420277;23;20298;-71
2022/01/11 16:15:24;;;;;;;0.20;0.03;;;16.60;99.90;;;;;;25444840;23;20201;-69
2022/01/11 16:25:28;;;;;;;0.20;0.10;;;15.40;99.90;;;;;;25443712;23;20169;-69
2022/01/11 16:35:35;;;;;;;0.20;0.10;;;14.30;99.90;;;;;;25455928;23;20577;-66
2022/01/11 16:45:44;;;;;;;0.20;0.00;;;13.60;99.90;;;;;;25448927;23;20169;-68
2022/01/11 16:55:50;;;;;;;0.20;0.10;;;12.70;99.90;;;;;;25443217;23;20194;-70
2022/01/11 17:05:54;;;;;;;0.20;0.10;;;12.30;99.90;;;;;;25439437;23;20274;-67
2022/01/11 17:16:00;;;;;;;1.10;1.00;;;11.60;99.90;;;;;;25443341;23;20191;-68
2022/01/11 17:26:04;;;;;;;0.20;0.10;;;11.40;99.90;;;;;;25439704;23;20613;-70
2022/01/11 17:36:11;;;;;;;0.20;0.17;;;10.90;99.90;;;;;;25447038;23;20206;-69
2022/01/11 17:46:14;;;;;;;0.20;0.10;;;10.80;99.90;;;;;;25461722;23;20259;-70
2022/01/11 17:56:20;;;;;;;0.20;0.10;;;10.90;99.90;;;;;;25464070;23;20214;-68
2022/01/11 18:06:24;;;;;;;4.70;4.33;;;10.80;99.90;;;;;;25463083;23;20237;-69
2022/01/11 18:16:29;;;;;;;0.20;0.10;;;10.80;99.90;;;;;;25463949;23;20213;-70
2022/01/11 18:26:33;;;;;;;0.20;0.10;;;10.20;99.90;;;;;;25462345;23;20214;-64
2022/01/11 18:36:38;;;;;;;0.20;0.00;;;10.30;99.90;;;;;;25452364;23;20669;-64
2022/01/11 18:46:41;;;;;;;0.20;0.10;;;10.20;99.90;;;;;;25453087;23;20597;-64
2022/01/11 18:56:46;;;;;;;0.20;0.10;;;10.40;99.90;;;;;;25457800;23;20527;-64
2022/01/11 19:06:58;;;;;;;0.20;0.00;;;9.80;99.90;;;;;;25456894;23;20225;-73
2022/01/11 19:17:07;;;;;;;0.20;0.00;;;9.70;99.90;;;;;;25455396;23;20186;-72
2022/01/11 19:27:14;;;;;;;0.20;0.00;;;9.50;99.90;;;;;;25456564;23;20182;-67
2022/01/11 19:37:21;;;;;;;0.20;0.10;;;10.00;99.90;;;;;;25430265;23;20301;-68
2022/01/11 19:47:25;;;;;;;0.20;0.10;;;10.40;99.90;;;;;;25430627;23;20253;-69
2022/01/11 19:57:30;;;;;;;0.20;0.10;;;10.80;99.90;;;;;;25427620;23;20277;-69
2022/01/11 20:07:35;;;;;;;0.30;0.30;;;11.00;99.90;;;;;;25457695;23;20491;-68
2022/01/11 20:17:40;;;;;;;0.20;0.10;;;11.10;99.90;;;;;;25456040;23;20198;-67
2022/01/11 20:27:44;;;;;;;0.20;0.10;;;11.20;99.90;;;;;;25428823;23;20652;-66
2022/01/11 20:37:49;;;;;;;1.20;1.20;;;11.20;99.90;;;;;;25455517;23;20526;-67
2022/01/11 20:47:53;;;;;;;0.20;0.10;;;11.50;99.90;;;;;;25421545;23;20179;-69
2022/01/11 20:57:58;;;;;;;0.20;0.10;;;11.60;99.90;;;;;;25454862;23;20206;-69
2022/01/11 21:08:02;;;;;;;0.20;0.10;;;12.20;99.90;;;;;;25460951;23;20175;-69
2022/01/11 21:28:29;;;;;;;0.20;0.10;;;12.20;99.90;;;;;;25467759;23;20630;-76
2022/01/11 21:38:35;;;;;;;0.20;0.10;;;12.40;99.90;;;;;;25468371;23;20226;-76
2022/01/11 21:48:39;;;;;;;0.20;0.10;;;12.60;99.90;;;;;;25468544;23;20195;-77
2022/01/11 21:58:44;;;;;;;0.20;0.10;;;12.50;99.90;;;;;;25440739;23;20739;-74
2022/01/11 22:08:47;;;;;;;0.20;0.10;;;12.40;99.90;;;;;;25467526;23;20720;-77
2022/01/11 22:18:52;;;;;;;0.20;0.10;;;12.30;99.90;;;;;;25466919;23;20278;-75
2022/01/11 22:28:57;;;;;;;0.20;0.00;;;12.30;99.90;;;;;;25467211;23;20241;-77
2022/01/11 22:39:02;;;;;;;0.20;0.10;;;12.40;99.90;;;;;;25466136;23;20277;-76
2022/01/11 22:49:06;;;;;;;0.20;0.00;;;12.50;99.90;;;;;;25466707;23;20254;-74
2022/01/11 22:59:11;;;;;;;0.20;0.10;;;12.40;99.90;;;;;;25465664;23;20285;-74
2022/01/11 23:09:16;;;;;;;0.20;0.10;;;12.10;99.90;;;;;;25438383;23;20274;-75
2022/01/11 23:19:21;;;;;;;0.20;0.10;;;12.00;99.90;;;;;;25465580;23;20279;-74
2022/01/11 23:29:25;;;;;;;0.20;0.10;;;11.60;99.90;;;;;;25465592;23;20652;-75
2022/01/11 23:40:02;;;;;;;0.20;0.10;;;10.90;99.90;;;;;;25439155;23;20315;-66
2022/01/11 23:50:02;;;;;;;0.20;0.10;;;10.80;99.90;;;;;;25437322;23;20512;-64
